sensor_id;sensor_type;location;lat;lon;timestamp;P1;durP1;ratioP1;P2;durP2;ratioP2
5696;SDS011;2873;50.966;7.210;2023-07-31T00:00:10;3.65;;;2.70;;
5696;SDS011;2873;50.966;7.210;2023-07-31T00:02:36;6.28;;;2.60;;
5696;SDS011;2873;50.966;7.210;2023-07-31T00:05:02;5.70;;;2.80;;
5696;SDS011;2873;50.966;7.210;2023-07-31T00:07:27;4.23;;;2.80;;
5696;SDS011;2873;50.966;7.210;2023-07-31T00:09:53;7.53;;;2.90;;
5696;SDS011;2873;50.966;7.210;2023-07-31T00:12:19;2.95;;;2.35;;
5696;SDS011;2873;50.966;7.210;2023-07-31T00:14:45;5.03;;;2.60;;
5696;SDS011;2873;50.966;7.210;2023-07-31T00:17:11;3.40;;;2.80;;
5696;SDS011;2873;50.966;7.210;2023-07-31T00:19:36;3.72;;;2.60;;
5696;SDS011;2873;50.966;7.210;2023-07-31T00:22:02;7.72;;;2.55;;
5696;SDS011;2873;50.966;7.210;2023-07-31T00:24:28;8.40;;;2.87;;
5696;SDS011;2873;50.966;7.210;2023-07-31T00:26:53;3.70;;;2.58;;
5696;SDS011;2873;50.966;7.210;2023-07-31T00:29:19;5.63;;;2.70;;
5696;SDS011;2873;50.966;7.210;2023-07-31T00:31:44;5.73;;;2.80;;
5696;SDS011;2873;50.966;7.210;2023-07-31T00:34:10;9.67;;;2.77;;
5696;SDS011;2873;50.966;7.210;2023-07-31T00:36:35;6.00;;;2.83;;
5696;SDS011;2873;50.966;7.210;2023-07-31T00:39:01;10.68;;;3.00;;
5696;SDS011;2873;50.966;7.210;2023-07-31T00:41:26;4.57;;;3.20;;
5696;SDS011;2873;50.966;7.210;2023-07-31T00:43:52;6.43;;;2.93;;
5696;SDS011;2873;50.966;7.210;2023-07-31T00:46:17;6.73;;;3.00;;
5696;SDS011;2873;50.966;7.210;2023-07-31T00:48:43;14.90;;;3.50;;
5696;SDS011;2873;50.966;7.210;2023-07-31T00:51:09;6.53;;;2.90;;
5696;SDS011;2873;50.966;7.210;2023-07-31T00:53:35;4.63;;;2.80;;
5696;SDS011;2873;50.966;7.210;2023-07-31T00:56:01;5.97;;;3.30;;
5696;SDS011;2873;50.966;7.210;2023-07-31T00:58:27;5.18;;;2.80;;
5696;SDS011;2873;50.966;7.210;2023-07-31T01:00:52;6.37;;;2.77;;
5696;SDS011;2873;50.966;7.210;2023-07-31T01:03:18;9.73;;;3.20;;
5696;SDS011;2873;50.966;7.210;2023-07-31T01:08:15;5.73;;;2.57;;
5696;SDS011;2873;50.966;7.210;2023-07-31T01:10:50;4.03;;;2.20;;
5696;SDS011;2873;50.966;7.210;2023-07-31T01:13:22;7.13;;;2.85;;
5696;SDS011;2873;50.966;7.210;2023-07-31T01:15:49;10.13;;;3.50;;
5696;SDS011;2873;50.966;7.210;2023-07-31T01:18:14;6.30;;;2.73;;
5696;SDS011;2873;50.966;7.210;2023-07-31T01:20:41;3.40;;;2.30;;
5696;SDS011;2873;50.966;7.210;2023-07-31T01:26:05;5.22;;;2.25;;
5696;SDS011;2873;50.966;7.210;2023-07-31T01:31:26;7.60;;;2.40;;
5696;SDS011;2873;50.966;7.210;2023-07-31T01:33:54;4.60;;;2.20;;
5696;SDS011;2873;50.966;7.210;2023-07-31T01:36:24;5.03;;;2.42;;
5696;SDS011;2873;50.966;7.210;2023-07-31T01:38:50;7.97;;;2.30;;
5696;SDS011;2873;50.966;7.210;2023-07-31T01:41:16;4.60;;;2.80;;
5696;SDS011;2873;50.966;7.210;2023-07-31T01:43:43;5.00;;;2.40;;
5696;SDS011;2873;50.966;7.210;2023-07-31T01:46:09;5.73;;;2.40;;
5696;SDS011;2873;50.966;7.210;2023-07-31T01:48:34;6.07;;;2.50;;
5696;SDS011;2873;50.966;7.210;2023-07-31T01:51:01;3.92;;;2.35;;
5696;SDS011;2873;50.966;7.210;2023-07-31T01:53:28;5.30;;;2.13;;
5696;SDS011;2873;50.966;7.210;2023-07-31T01:55:55;7.82;;;2.20;;
5696;SDS011;2873;50.966;7.210;2023-07-31T01:58:20;7.50;;;2.27;;
5696;SDS011;2873;50.966;7.210;2023-07-31T02:00:46;7.10;;;2.65;;
5696;SDS011;2873;50.966;7.210;2023-07-31T02:03:11;7.70;;;2.55;;
5696;SDS011;2873;50.966;7.210;2023-07-31T02:05:43;6.10;;;2.80;;
5696;SDS011;2873;50.966;7.210;2023-07-31T02:08:13;5.32;;;2.60;;
5696;SDS011;2873;50.966;7.210;2023-07-31T02:10:39;8.02;;;2.60;;
5696;SDS011;2873;50.966;7.210;2023-07-31T02:13:04;4.75;;;2.50;;
5696;SDS011;2873;50.966;7.210;2023-07-31T02:15:30;3.83;;;2.58;;
5696;SDS011;2873;50.966;7.210;2023-07-31T02:17:56;3.83;;;2.30;;
5696;SDS011;2873;50.966;7.210;2023-07-31T02:20:21;5.57;;;2.40;;
5696;SDS011;2873;50.966;7.210;2023-07-31T02:22:47;3.58;;;2.10;;
5696;SDS011;2873;50.966;7.210;2023-07-31T02:25:12;6.90;;;2.80;;
5696;SDS011;2873;50.966;7.210;2023-07-31T02:27:38;5.95;;;2.40;;
5696;SDS011;2873;50.966;7.210;2023-07-31T02:30:04;6.77;;;3.23;;
5696;SDS011;2873;50.966;7.210;2023-07-31T02:32:30;6.10;;;2.30;;
5696;SDS011;2873;50.966;7.210;2023-07-31T02:34:56;5.30;;;2.13;;
5696;SDS011;2873;50.966;7.210;2023-07-31T02:37:21;6.00;;;2.20;;
5696;SDS011;2873;50.966;7.210;2023-07-31T02:39:47;4.90;;;2.17;;
5696;SDS011;2873;50.966;7.210;2023-07-31T02:42:12;4.70;;;2.30;;
5696;SDS011;2873;50.966;7.210;2023-07-31T02:44:39;5.25;;;2.20;;
5696;SDS011;2873;50.966;7.210;2023-07-31T02:47:04;3.73;;;2.27;;
5696;SDS011;2873;50.966;7.210;2023-07-31T02:49:30;6.60;;;2.35;;
5696;SDS011;2873;50.966;7.210;2023-07-31T02:51:55;5.00;;;2.27;;
5696;SDS011;2873;50.966;7.210;2023-07-31T02:54:21;4.77;;;2.57;;
5696;SDS011;2873;50.966;7.210;2023-07-31T02:56:47;8.60;;;2.53;;
5696;SDS011;2873;50.966;7.210;2023-07-31T02:59:13;4.80;;;2.38;;
5696;SDS011;2873;50.966;7.210;2023-07-31T03:01:38;5.43;;;2.40;;
5696;SDS011;2873;50.966;7.210;2023-07-31T03:04:04;5.85;;;2.20;;
5696;SDS011;2873;50.966;7.210;2023-07-31T03:06:29;5.10;;;2.17;;
5696;SDS011;2873;50.966;7.210;2023-07-31T03:08:55;5.53;;;2.23;;
5696;SDS011;2873;50.966;7.210;2023-07-31T03:11:20;9.07;;;2.80;;
5696;SDS011;2873;50.966;7.210;2023-07-31T03:13:46;4.47;;;2.10;;
5696;SDS011;2873;50.966;7.210;2023-07-31T03:16:12;8.97;;;2.60;;
5696;SDS011;2873;50.966;7.210;2023-07-31T03:18:37;6.05;;;2.00;;
5696;SDS011;2873;50.966;7.210;2023-07-31T03:21:03;6.97;;;2.30;;
5696;SDS011;2873;50.966;7.210;2023-07-31T03:23:29;5.88;;;2.17;;
5696;SDS011;2873;50.966;7.210;2023-07-31T03:25:58;5.90;;;2.10;;
5696;SDS011;2873;50.966;7.210;2023-07-31T03:28:25;7.65;;;2.42;;
5696;SDS011;2873;50.966;7.210;2023-07-31T03:30:51;10.93;;;2.50;;
5696;SDS011;2873;50.966;7.210;2023-07-31T03:33:17;6.35;;;2.60;;
5696;SDS011;2873;50.966;7.210;2023-07-31T03:35:42;4.10;;;2.40;;
5696;SDS011;2873;50.966;7.210;2023-07-31T03:38:08;5.40;;;2.72;;
5696;SDS011;2873;50.966;7.210;2023-07-31T03:40:33;9.80;;;2.80;;
5696;SDS011;2873;50.966;7.210;2023-07-31T03:42:59;8.27;;;2.77;;
5696;SDS011;2873;50.966;7.210;2023-07-31T03:45:24;7.10;;;2.50;;
5696;SDS011;2873;50.966;7.210;2023-07-31T03:47:50;4.28;;;2.22;;
5696;SDS011;2873;50.966;7.210;2023-07-31T03:50:16;9.52;;;2.80;;
5696;SDS011;2873;50.966;7.210;2023-07-31T03:52:41;5.33;;;2.23;;
5696;SDS011;2873;50.966;7.210;2023-07-31T03:55:07;3.38;;;2.38;;
5696;SDS011;2873;50.966;7.210;2023-07-31T03:57:33;5.53;;;2.55;;
5696;SDS011;2873;50.966;7.210;2023-07-31T03:59:58;5.37;;;2.70;;
5696;SDS011;2873;50.966;7.210;2023-07-31T04:02:24;5.55;;;3.00;;
5696;SDS011;2873;50.966;7.210;2023-07-31T04:04:50;5.90;;;2.47;;
5696;SDS011;2873;50.966;7.210;2023-07-31T04:07:15;5.97;;;2.87;;
5696;SDS011;2873;50.966;7.210;2023-07-31T04:09:41;5.55;;;2.90;;
5696;SDS011;2873;50.966;7.210;2023-07-31T04:12:06;4.78;;;2.60;;
5696;SDS011;2873;50.966;7.210;2023-07-31T04:14:32;7.20;;;3.03;;
5696;SDS011;2873;50.966;7.210;2023-07-31T04:16:58;8.05;;;3.00;;
5696;SDS011;2873;50.966;7.210;2023-07-31T04:19:23;6.03;;;3.17;;
5696;SDS011;2873;50.966;7.210;2023-07-31T04:21:49;6.57;;;3.40;;
5696;SDS011;2873;50.966;7.210;2023-07-31T04:24:15;4.70;;;3.00;;
5696;SDS011;2873;50.966;7.210;2023-07-31T04:26:41;9.27;;;3.07;;
5696;SDS011;2873;50.966;7.210;2023-07-31T04:29:06;6.43;;;3.40;;
5696;SDS011;2873;50.966;7.210;2023-07-31T04:31:33;8.38;;;2.90;;
5696;SDS011;2873;50.966;7.210;2023-07-31T04:33:59;6.83;;;3.70;;
5696;SDS011;2873;50.966;7.210;2023-07-31T04:36:24;8.32;;;3.13;;
5696;SDS011;2873;50.966;7.210;2023-07-31T04:38:50;8.07;;;3.00;;
5696;SDS011;2873;50.966;7.210;2023-07-31T04:41:15;5.13;;;3.17;;
5696;SDS011;2873;50.966;7.210;2023-07-31T04:43:41;7.00;;;3.07;;
5696;SDS011;2873;50.966;7.210;2023-07-31T04:46:06;6.15;;;3.50;;
5696;SDS011;2873;50.966;7.210;2023-07-31T04:48:32;4.70;;;3.10;;
5696;SDS011;2873;50.966;7.210;2023-07-31T04:50:57;7.90;;;3.90;;
5696;SDS011;2873;50.966;7.210;2023-07-31T04:53:23;4.80;;;3.40;;
5696;SDS011;2873;50.966;7.210;2023-07-31T04:55:48;9.05;;;3.40;;
5696;SDS011;2873;50.966;7.210;2023-07-31T04:58:14;7.43;;;3.28;;
5696;SDS011;2873;50.966;7.210;2023-07-31T05:00:40;7.27;;;3.40;;
5696;SDS011;2873;50.966;7.210;2023-07-31T05:03:05;4.70;;;3.07;;
5696;SDS011;2873;50.966;7.210;2023-07-31T05:05:31;9.95;;;3.60;;
5696;SDS011;2873;50.966;7.210;2023-07-31T05:07:57;6.10;;;3.40;;
5696;SDS011;2873;50.966;7.210;2023-07-31T05:10:23;4.23;;;2.60;;
5696;SDS011;2873;50.966;7.210;2023-07-31T05:12:48;6.40;;;3.10;;
5696;SDS011;2873;50.966;7.210;2023-07-31T05:15:14;4.17;;;2.63;;
5696;SDS011;2873;50.966;7.210;2023-07-31T05:17:39;9.63;;;3.05;;
5696;SDS011;2873;50.966;7.210;2023-07-31T05:20:05;5.05;;;2.90;;
5696;SDS011;2873;50.966;7.210;2023-07-31T05:22:31;4.78;;;3.22;;
5696;SDS011;2873;50.966;7.210;2023-07-31T05:24:57;5.20;;;3.17;;
5696;SDS011;2873;50.966;7.210;2023-07-31T05:27:22;8.07;;;3.07;;
5696;SDS011;2873;50.966;7.210;2023-07-31T05:29:48;8.80;;;3.20;;
5696;SDS011;2873;50.966;7.210;2023-07-31T05:32:13;7.88;;;2.92;;
5696;SDS011;2873;50.966;7.210;2023-07-31T05:34:39;5.05;;;2.63;;
5696;SDS011;2873;50.966;7.210;2023-07-31T05:37:04;5.10;;;2.80;;
5696;SDS011;2873;50.966;7.210;2023-07-31T05:39:30;11.88;;;3.60;;
5696;SDS011;2873;50.966;7.210;2023-07-31T05:41:56;7.30;;;3.58;;
5696;SDS011;2873;50.966;7.210;2023-07-31T05:44:22;5.00;;;2.97;;
5696;SDS011;2873;50.966;7.210;2023-07-31T05:46:47;6.07;;;2.60;;
5696;SDS011;2873;50.966;7.210;2023-07-31T05:49:13;4.00;;;2.90;;
5696;SDS011;2873;50.966;7.210;2023-07-31T05:51:38;4.40;;;2.80;;
5696;SDS011;2873;50.966;7.210;2023-07-31T05:54:04;4.57;;;2.83;;
5696;SDS011;2873;50.966;7.210;2023-07-31T05:56:29;10.97;;;2.90;;
5696;SDS011;2873;50.966;7.210;2023-07-31T05:58:56;4.83;;;2.70;;
5696;SDS011;2873;50.966;7.210;2023-07-31T06:01:22;7.32;;;3.20;;
5696;SDS011;2873;50.966;7.210;2023-07-31T06:03:47;5.37;;;3.20;;
5696;SDS011;2873;50.966;7.210;2023-07-31T06:06:13;6.97;;;3.10;;
5696;SDS011;2873;50.966;7.210;2023-07-31T06:08:39;4.65;;;3.10;;
5696;SDS011;2873;50.966;7.210;2023-07-31T06:11:05;4.13;;;3.10;;
5696;SDS011;2873;50.966;7.210;2023-07-31T06:13:30;6.55;;;3.00;;
5696;SDS011;2873;50.966;7.210;2023-07-31T06:15:56;7.85;;;2.90;;
5696;SDS011;2873;50.966;7.210;2023-07-31T06:18:22;7.77;;;3.20;;
5696;SDS011;2873;50.966;7.210;2023-07-31T06:20:47;5.20;;;3.07;;
5696;SDS011;2873;50.966;7.210;2023-07-31T06:23:18;5.90;;;2.92;;
5696;SDS011;2873;50.966;7.210;2023-07-31T06:25:44;8.30;;;3.30;;
5696;SDS011;2873;50.966;7.210;2023-07-31T06:28:09;4.18;;;2.60;;
5696;SDS011;2873;50.966;7.210;2023-07-31T06:30:35;6.10;;;2.87;;
5696;SDS011;2873;50.966;7.210;2023-07-31T06:33:01;3.10;;;2.90;;
5696;SDS011;2873;50.966;7.210;2023-07-31T06:35:26;5.77;;;2.50;;
5696;SDS011;2873;50.966;7.210;2023-07-31T06:37:52;5.28;;;3.25;;
5696;SDS011;2873;50.966;7.210;2023-07-31T06:40:17;10.77;;;3.10;;
5696;SDS011;2873;50.966;7.210;2023-07-31T06:42:44;6.25;;;3.25;;
5696;SDS011;2873;50.966;7.210;2023-07-31T06:45:10;5.30;;;2.90;;
5696;SDS011;2873;50.966;7.210;2023-07-31T06:47:35;7.15;;;3.10;;
5696;SDS011;2873;50.966;7.210;2023-07-31T06:50:01;4.63;;;2.73;;
5696;SDS011;2873;50.966;7.210;2023-07-31T06:52:26;5.17;;;3.20;;
5696;SDS011;2873;50.966;7.210;2023-07-31T06:55:02;4.80;;;2.80;;
5696;SDS011;2873;50.966;7.210;2023-07-31T06:57:54;5.40;;;3.10;;
5696;SDS011;2873;50.966;7.210;2023-07-31T07:00:21;4.57;;;2.75;;
5696;SDS011;2873;50.966;7.210;2023-07-31T07:02:47;8.65;;;3.10;;
5696;SDS011;2873;50.966;7.210;2023-07-31T07:05:14;4.50;;;3.00;;
5696;SDS011;2873;50.966;7.210;2023-07-31T07:07:41;7.38;;;2.92;;
5696;SDS011;2873;50.966;7.210;2023-07-31T07:10:07;4.83;;;3.10;;
5696;SDS011;2873;50.966;7.210;2023-07-31T07:12:33;4.07;;;2.87;;
5696;SDS011;2873;50.966;7.210;2023-07-31T07:14:59;4.43;;;2.85;;
5696;SDS011;2873;50.966;7.210;2023-07-31T07:17:28;5.82;;;2.80;;
5696;SDS011;2873;50.966;7.210;2023-07-31T07:19:57;5.07;;;3.00;;
5696;SDS011;2873;50.966;7.210;2023-07-31T07:22:24;10.95;;;3.35;;
5696;SDS011;2873;50.966;7.210;2023-07-31T07:24:50;8.68;;;3.42;;
5696;SDS011;2873;50.966;7.210;2023-07-31T07:27:16;5.20;;;3.10;;
5696;SDS011;2873;50.966;7.210;2023-07-31T07:29:41;5.17;;;2.87;;
5696;SDS011;2873;50.966;7.210;2023-07-31T07:32:07;4.00;;;2.90;;
5696;SDS011;2873;50.966;7.210;2023-07-31T07:34:33;4.40;;;3.03;;
5696;SDS011;2873;50.966;7.210;2023-07-31T07:36:58;7.03;;;3.23;;
5696;SDS011;2873;50.966;7.210;2023-07-31T07:39:24;6.03;;;3.30;;
5696;SDS011;2873;50.966;7.210;2023-07-31T07:41:50;4.95;;;2.83;;
5696;SDS011;2873;50.966;7.210;2023-07-31T07:44:15;4.93;;;3.30;;
5696;SDS011;2873;50.966;7.210;2023-07-31T07:46:41;5.50;;;2.73;;
5696;SDS011;2873;50.966;7.210;2023-07-31T07:49:07;6.45;;;3.30;;
5696;SDS011;2873;50.966;7.210;2023-07-31T07:51:32;4.23;;;2.77;;
5696;SDS011;2873;50.966;7.210;2023-07-31T07:53:58;5.50;;;3.00;;
5696;SDS011;2873;50.966;7.210;2023-07-31T07:56:25;5.38;;;3.20;;
5696;SDS011;2873;50.966;7.210;2023-07-31T07:58:51;4.80;;;3.10;;
5696;SDS011;2873;50.966;7.210;2023-07-31T08:01:18;4.60;;;2.50;;
5696;SDS011;2873;50.966;7.210;2023-07-31T08:03:43;4.60;;;3.30;;
5696;SDS011;2873;50.966;7.210;2023-07-31T08:06:09;7.57;;;3.15;;
5696;SDS011;2873;50.966;7.210;2023-07-31T08:08:35;6.63;;;3.00;;
5696;SDS011;2873;50.966;7.210;2023-07-31T08:11:02;9.18;;;3.40;;
5696;SDS011;2873;50.966;7.210;2023-07-31T08:13:27;3.50;;;2.90;;
5696;SDS011;2873;50.966;7.210;2023-07-31T08:15:53;6.65;;;3.40;;
5696;SDS011;2873;50.966;7.210;2023-07-31T08:18:19;5.97;;;2.90;;
5696;SDS011;2873;50.966;7.210;2023-07-31T08:20:45;5.70;;;3.03;;
5696;SDS011;2873;50.966;7.210;2023-07-31T08:23:10;7.53;;;3.30;;
5696;SDS011;2873;50.966;7.210;2023-07-31T08:25:36;4.77;;;3.20;;
5696;SDS011;2873;50.966;7.210;2023-07-31T08:28:02;8.30;;;3.00;;
5696;SDS011;2873;50.966;7.210;2023-07-31T08:30:28;5.43;;;2.97;;
5696;SDS011;2873;50.966;7.210;2023-07-31T08:32:54;5.70;;;3.10;;
5696;SDS011;2873;50.966;7.210;2023-07-31T08:35:19;9.20;;;3.47;;
5696;SDS011;2873;50.966;7.210;2023-07-31T08:37:45;6.83;;;3.53;;
5696;SDS011;2873;50.966;7.210;2023-07-31T08:40:10;4.90;;;3.40;;
5696;SDS011;2873;50.966;7.210;2023-07-31T08:42:46;7.60;;;3.10;;
5696;SDS011;2873;50.966;7.210;2023-07-31T08:45:19;5.03;;;2.97;;
5696;SDS011;2873;50.966;7.210;2023-07-31T08:47:45;4.30;;;3.25;;
5696;SDS011;2873;50.966;7.210;2023-07-31T08:50:17;6.35;;;2.85;;
5696;SDS011;2873;50.966;7.210;2023-07-31T08:52:46;3.47;;;2.73;;
5696;SDS011;2873;50.966;7.210;2023-07-31T08:55:13;3.97;;;2.88;;
5696;SDS011;2873;50.966;7.210;2023-07-31T08:57:39;5.15;;;2.90;;
5696;SDS011;2873;50.966;7.210;2023-07-31T09:00:08;5.25;;;2.70;;
5696;SDS011;2873;50.966;7.210;2023-07-31T09:02:37;4.78;;;2.90;;
5696;SDS011;2873;50.966;7.210;2023-07-31T09:05:10;4.30;;;2.92;;
5696;SDS011;2873;50.966;7.210;2023-07-31T09:07:36;5.10;;;3.40;;
5696;SDS011;2873;50.966;7.210;2023-07-31T09:10:03;4.25;;;3.00;;
5696;SDS011;2873;50.966;7.210;2023-07-31T09:12:29;4.43;;;2.70;;
5696;SDS011;2873;50.966;7.210;2023-07-31T09:14:56;6.82;;;3.13;;
5696;SDS011;2873;50.966;7.210;2023-07-31T09:17:29;6.53;;;3.10;;
5696;SDS011;2873;50.966;7.210;2023-07-31T09:19:56;7.10;;;3.42;;
5696;SDS011;2873;50.966;7.210;2023-07-31T09:22:32;5.68;;;3.45;;
5696;SDS011;2873;50.966;7.210;2023-07-31T09:25:04;8.20;;;3.28;;
5696;SDS011;2873;50.966;7.210;2023-07-31T09:27:57;4.85;;;2.78;;
5696;SDS011;2873;50.966;7.210;2023-07-31T09:30:24;5.13;;;3.05;;
5696;SDS011;2873;50.966;7.210;2023-07-31T09:32:50;8.48;;;3.78;;
5696;SDS011;2873;50.966;7.210;2023-07-31T09:35:31;4.10;;;2.60;;
5696;SDS011;2873;50.966;7.210;2023-07-31T09:37:58;8.10;;;3.20;;
5696;SDS011;2873;50.966;7.210;2023-07-31T09:40:29;5.65;;;3.17;;
5696;SDS011;2873;50.966;7.210;2023-07-31T09:42:56;7.85;;;3.55;;
5696;SDS011;2873;50.966;7.210;2023-07-31T09:45:23;8.07;;;3.30;;
5696;SDS011;2873;50.966;7.210;2023-07-31T09:47:50;8.40;;;3.20;;
5696;SDS011;2873;50.966;7.210;2023-07-31T09:50:16;6.57;;;2.90;;
5696;SDS011;2873;50.966;7.210;2023-07-31T09:52:42;8.85;;;3.10;;
5696;SDS011;2873;50.966;7.210;2023-07-31T09:55:08;6.57;;;3.50;;
5696;SDS011;2873;50.966;7.210;2023-07-31T09:57:41;5.68;;;3.22;;
5696;SDS011;2873;50.966;7.210;2023-07-31T10:00:10;6.23;;;3.20;;
5696;SDS011;2873;50.966;7.210;2023-07-31T10:02:37;7.55;;;3.40;;
5696;SDS011;2873;50.966;7.210;2023-07-31T10:05:04;8.80;;;3.70;;
5696;SDS011;2873;50.966;7.210;2023-07-31T10:07:30;7.93;;;3.30;;
5696;SDS011;2873;50.966;7.210;2023-07-31T10:09:59;6.00;;;3.00;;
5696;SDS011;2873;50.966;7.210;2023-07-31T10:12:26;4.65;;;2.80;;
5696;SDS011;2873;50.966;7.210;2023-07-31T10:14:55;5.28;;;2.95;;
5696;SDS011;2873;50.966;7.210;2023-07-31T10:17:21;5.80;;;3.10;;
5696;SDS011;2873;50.966;7.210;2023-07-31T10:19:48;6.85;;;2.50;;
5696;SDS011;2873;50.966;7.210;2023-07-31T10:22:14;6.18;;;2.40;;
5696;SDS011;2873;50.966;7.210;2023-07-31T10:24:44;5.50;;;3.80;;
5696;SDS011;2873;50.966;7.210;2023-07-31T10:27:11;3.30;;;2.80;;
5696;SDS011;2873;50.966;7.210;2023-07-31T10:29:37;5.00;;;2.65;;
5696;SDS011;2873;50.966;7.210;2023-07-31T10:32:05;6.47;;;3.00;;
5696;SDS011;2873;50.966;7.210;2023-07-31T10:34:35;4.70;;;3.00;;
5696;SDS011;2873;50.966;7.210;2023-07-31T10:40:11;6.05;;;2.90;;
5696;SDS011;2873;50.966;7.210;2023-07-31T10:42:55;4.88;;;2.90;;
5696;SDS011;2873;50.966;7.210;2023-07-31T10:47:57;6.65;;;3.00;;
5696;SDS011;2873;50.966;7.210;2023-07-31T10:50:31;8.73;;;5.73;;
5696;SDS011;2873;50.966;7.210;2023-07-31T10:52:58;5.05;;;3.42;;
5696;SDS011;2873;50.966;7.210;2023-07-31T10:58:05;13.70;;;7.45;;
5696;SDS011;2873;50.966;7.210;2023-07-31T11:00:31;16.23;;;8.05;;
5696;SDS011;2873;50.966;7.210;2023-07-31T11:08:11;7.00;;;3.42;;
5696;SDS011;2873;50.966;7.210;2023-07-31T11:10:36;7.32;;;3.20;;
5696;SDS011;2873;50.966;7.210;2023-07-31T11:13:04;9.90;;;4.87;;
5696;SDS011;2873;50.966;7.210;2023-07-31T11:15:30;14.57;;;7.93;;
5696;SDS011;2873;50.966;7.210;2023-07-31T11:17:56;8.60;;;4.65;;
5696;SDS011;2873;50.966;7.210;2023-07-31T11:20:24;9.27;;;4.28;;
5696;SDS011;2873;50.966;7.210;2023-07-31T11:22:50;6.67;;;3.30;;
5696;SDS011;2873;50.966;7.210;2023-07-31T11:25:16;3.30;;;2.80;;
5696;SDS011;2873;50.966;7.210;2023-07-31T11:27:42;4.55;;;2.88;;
5696;SDS011;2873;50.966;7.210;2023-07-31T11:30:08;6.32;;;3.08;;
5696;SDS011;2873;50.966;7.210;2023-07-31T11:32:38;5.88;;;3.42;;
5696;SDS011;2873;50.966;7.210;2023-07-31T11:35:04;3.28;;;2.97;;
5696;SDS011;2873;50.966;7.210;2023-07-31T11:37:40;4.95;;;3.13;;
5696;SDS011;2873;50.966;7.210;2023-07-31T11:40:07;3.63;;;2.80;;
5696;SDS011;2873;50.966;7.210;2023-07-31T11:42:34;4.70;;;2.53;;
5696;SDS011;2873;50.966;7.210;2023-07-31T11:45:09;3.97;;;2.70;;
5696;SDS011;2873;50.966;7.210;2023-07-31T11:47:36;3.05;;;2.30;;
5696;SDS011;2873;50.966;7.210;2023-07-31T11:50:03;2.22;;;2.03;;
5696;SDS011;2873;50.966;7.210;2023-07-31T11:52:30;2.83;;;1.85;;
5696;SDS011;2873;50.966;7.210;2023-07-31T11:55:01;3.55;;;2.08;;
5696;SDS011;2873;50.966;7.210;2023-07-31T11:57:27;2.05;;;1.67;;
5696;SDS011;2873;50.966;7.210;2023-07-31T11:59:53;1.48;;;1.38;;
5696;SDS011;2873;50.966;7.210;2023-07-31T12:02:20;1.40;;;1.30;;
5696;SDS011;2873;50.966;7.210;2023-07-31T12:04:46;1.60;;;1.30;;
5696;SDS011;2873;50.966;7.210;2023-07-31T12:07:12;1.60;;;1.40;;
5696;SDS011;2873;50.966;7.210;2023-07-31T12:09:38;2.00;;;1.50;;
5696;SDS011;2873;50.966;7.210;2023-07-31T12:12:07;2.70;;;1.50;;
5696;SDS011;2873;50.966;7.210;2023-07-31T12:14:34;3.97;;;1.38;;
5696;SDS011;2873;50.966;7.210;2023-07-31T12:17:00;2.95;;;1.30;;
5696;SDS011;2873;50.966;7.210;2023-07-31T12:19:29;1.50;;;1.40;;
5696;SDS011;2873;50.966;7.210;2023-07-31T12:21:55;1.30;;;1.30;;
5696;SDS011;2873;50.966;7.210;2023-07-31T12:24:21;1.20;;;1.10;;
5696;SDS011;2873;50.966;7.210;2023-07-31T12:26:48;1.67;;;1.00;;
5696;SDS011;2873;50.966;7.210;2023-07-31T12:29:14;2.60;;;1.30;;
5696;SDS011;2873;50.966;7.210;2023-07-31T12:31:42;1.50;;;1.13;;
5696;SDS011;2873;50.966;7.210;2023-07-31T12:34:18;1.40;;;1.20;;
5696;SDS011;2873;50.966;7.210;2023-07-31T12:36:45;1.70;;;1.00;;
5696;SDS011;2873;50.966;7.210;2023-07-31T12:39:13;1.10;;;1.10;;
5696;SDS011;2873;50.966;7.210;2023-07-31T12:41:39;2.42;;;1.00;;
5696;SDS011;2873;50.966;7.210;2023-07-31T12:44:05;1.07;;;0.97;;
5696;SDS011;2873;50.966;7.210;2023-07-31T12:46:30;2.10;;;0.98;;
5696;SDS011;2873;50.966;7.210;2023-07-31T12:48:56;1.70;;;1.07;;
5696;SDS011;2873;50.966;7.210;2023-07-31T12:51:21;0.70;;;0.70;;
5696;SDS011;2873;50.966;7.210;2023-07-31T12:53:47;2.30;;;0.87;;
5696;SDS011;2873;50.966;7.210;2023-07-31T12:56:13;0.85;;;0.85;;
5696;SDS011;2873;50.966;7.210;2023-07-31T12:58:39;1.40;;;1.30;;
5696;SDS011;2873;50.966;7.210;2023-07-31T13:01:07;1.13;;;0.82;;
5696;SDS011;2873;50.966;7.210;2023-07-31T13:03:33;0.83;;;0.83;;
5696;SDS011;2873;50.966;7.210;2023-07-31T13:05:58;4.50;;;1.27;;
5696;SDS011;2873;50.966;7.210;2023-07-31T13:08:24;1.20;;;1.10;;
5696;SDS011;2873;50.966;7.210;2023-07-31T13:10:49;1.60;;;1.20;;
5696;SDS011;2873;50.966;7.210;2023-07-31T13:13:15;1.00;;;0.90;;
5696;SDS011;2873;50.966;7.210;2023-07-31T13:15:41;1.40;;;1.30;;
5696;SDS011;2873;50.966;7.210;2023-07-31T13:18:06;1.90;;;1.40;;
5696;SDS011;2873;50.966;7.210;2023-07-31T13:20:32;2.58;;;1.52;;
5696;SDS011;2873;50.966;7.210;2023-07-31T13:22:57;1.90;;;1.50;;
5696;SDS011;2873;50.966;7.210;2023-07-31T13:25:23;1.50;;;1.40;;
5696;SDS011;2873;50.966;7.210;2023-07-31T13:27:48;1.60;;;1.50;;
5696;SDS011;2873;50.966;7.210;2023-07-31T13:30:14;1.67;;;1.58;;
5696;SDS011;2873;50.966;7.210;2023-07-31T13:32:40;3.85;;;1.80;;
5696;SDS011;2873;50.966;7.210;2023-07-31T13:35:06;2.50;;;2.10;;
5696;SDS011;2873;50.966;7.210;2023-07-31T13:37:32;1.83;;;1.73;;
5696;SDS011;2873;50.966;7.210;2023-07-31T13:39:57;3.40;;;2.00;;
5696;SDS011;2873;50.966;7.210;2023-07-31T13:42:23;2.17;;;1.90;;
5696;SDS011;2873;50.966;7.210;2023-07-31T13:44:48;2.38;;;2.17;;
5696;SDS011;2873;50.966;7.210;2023-07-31T13:47:14;2.83;;;2.10;;
5696;SDS011;2873;50.966;7.210;2023-07-31T13:49:40;4.17;;;2.40;;
5696;SDS011;2873;50.966;7.210;2023-07-31T13:52:06;4.80;;;2.10;;
5696;SDS011;2873;50.966;7.210;2023-07-31T13:54:32;2.00;;;1.90;;
5696;SDS011;2873;50.966;7.210;2023-07-31T13:56:58;2.40;;;2.20;;
5696;SDS011;2873;50.966;7.210;2023-07-31T13:59:23;2.50;;;2.30;;
5696;SDS011;2873;50.966;7.210;2023-07-31T14:01:49;2.50;;;2.30;;
5696;SDS011;2873;50.966;7.210;2023-07-31T14:04:15;2.43;;;2.23;;
5696;SDS011;2873;50.966;7.210;2023-07-31T14:06:40;2.50;;;2.30;;
5696;SDS011;2873;50.966;7.210;2023-07-31T14:09:06;2.67;;;2.40;;
5696;SDS011;2873;50.966;7.210;2023-07-31T14:11:32;2.20;;;2.00;;
5696;SDS011;2873;50.966;7.210;2023-07-31T14:13:57;2.70;;;2.13;;
5696;SDS011;2873;50.966;7.210;2023-07-31T14:16:23;3.70;;;2.17;;
5696;SDS011;2873;50.966;7.210;2023-07-31T14:18:49;2.50;;;2.30;;
5696;SDS011;2873;50.966;7.210;2023-07-31T14:21:15;2.85;;;2.10;;
5696;SDS011;2873;50.966;7.210;2023-07-31T14:23:41;2.80;;;2.50;;
5696;SDS011;2873;50.966;7.210;2023-07-31T14:26:07;3.90;;;2.08;;
5696;SDS011;2873;50.966;7.210;2023-07-31T14:28:32;2.30;;;2.10;;
5696;SDS011;2873;50.966;7.210;2023-07-31T14:30:58;2.22;;;1.80;;
5696;SDS011;2873;50.966;7.210;2023-07-31T14:33:24;2.10;;;1.90;;
5696;SDS011;2873;50.966;7.210;2023-07-31T14:35:49;2.13;;;1.70;;
5696;SDS011;2873;50.966;7.210;2023-07-31T14:38:15;1.80;;;1.70;;
5696;SDS011;2873;50.966;7.210;2023-07-31T14:40:41;9.80;;;2.08;;
5696;SDS011;2873;50.966;7.210;2023-07-31T14:43:06;4.80;;;1.90;;
5696;SDS011;2873;50.966;7.210;2023-07-31T14:45:32;2.20;;;1.90;;
5696;SDS011;2873;50.966;7.210;2023-07-31T14:47:57;1.90;;;1.60;;
5696;SDS011;2873;50.966;7.210;2023-07-31T14:50:23;5.03;;;2.10;;
5696;SDS011;2873;50.966;7.210;2023-07-31T14:52:50;2.10;;;1.90;;
5696;SDS011;2873;50.966;7.210;2023-07-31T14:55:15;2.03;;;1.70;;
5696;SDS011;2873;50.966;7.210;2023-07-31T14:57:41;3.27;;;1.97;;
5696;SDS011;2873;50.966;7.210;2023-07-31T15:00:07;2.43;;;2.10;;
5696;SDS011;2873;50.966;7.210;2023-07-31T15:02:34;1.90;;;1.80;;
5696;SDS011;2873;50.966;7.210;2023-07-31T15:05:00;1.90;;;1.70;;
5696;SDS011;2873;50.966;7.210;2023-07-31T15:07:26;4.60;;;2.00;;
5696;SDS011;2873;50.966;7.210;2023-07-31T15:09:51;3.50;;;2.10;;
5696;SDS011;2873;50.966;7.210;2023-07-31T15:12:17;3.20;;;2.00;;
5696;SDS011;2873;50.966;7.210;2023-07-31T15:14:42;2.20;;;2.00;;
5696;SDS011;2873;50.966;7.210;2023-07-31T15:17:08;1.90;;;1.80;;
5696;SDS011;2873;50.966;7.210;2023-07-31T15:19:33;1.80;;;1.70;;
5696;SDS011;2873;50.966;7.210;2023-07-31T15:22:01;2.90;;;2.15;;
5696;SDS011;2873;50.966;7.210;2023-07-31T15:24:27;2.47;;;2.28;;
5696;SDS011;2873;50.966;7.210;2023-07-31T15:26:53;2.70;;;1.90;;
5696;SDS011;2873;50.966;7.210;2023-07-31T15:29:18;2.40;;;1.90;;
5696;SDS011;2873;50.966;7.210;2023-07-31T15:31:45;1.90;;;1.70;;